モスクワ/シェレメーチエヴォ の空港の天気 - METARとTAF

シェレメーチエヴォ国際空港(モスクワ) ( UUEE / SVO ) - ロシア モスクワ
飛行場実況気象(Metar)
観測時間06/24 12:30 MSK (06/24 09:30 UTC)
風向・風速北西 5m/s
視程10km以上
天気現象
なし
気温24℃
湿度31%
気圧1022hPa
METARUUEE 240930Z 31005MPS 270V350 CAVOK 24/06 Q1022 R06R/CLRD62 R06C/CLRD62 NOSIG
過去の天気等 Google飛行場航空写真 Wunderground天気予報

過去48時間のMETAR

飛行場予報(TAF)
発表時間: 6/24 10:51 MSK (6/24 07:51 UTC)
予報対象時間: 24日12時 MSK ~ 25日12時 MSK
風向・風速北 5m/s 瞬間風速 10m/s
視程10km以上
全天の4割程度の雲 雲底高度 1220m
TAF UUEE 240751Z 2409/2509 36005G10MPS 9999 SCT040 TX24/2412Z TN12/2501Z